Time;durP1;ratioP1;P1;durP2;ratioP2;P2;SDS_P1;SDS_P2;PMS_P1;PMS_P2;Temp;Humidity;BMP_temperature;BMP_pressure;BME280_temperature;BME280_humidity;BME280_pressure;Samples;Min_cycle;Max_cycle;Signal;HPM_P1;HPM_P2
2022/07/20 00:01:16;;;;;;;8.63;2.90;;;;;;;;;;5052819;28;20382;-38
2022/07/20 00:03:42;;;;;;;5.93;3.60;;;;;;;;;;5053196;28;20461;-39
2022/07/20 00:06:08;;;;;;;4.30;2.80;;;;;;;;;;5053704;28;20457;-38
2022/07/20 00:11:21;;;;;;;4.78;3.28;;;;;;;;;;5053643;28;20040;-38
2022/07/20 00:13:58;;;;;;;10.77;3.58;;;;;;;;;;5052839;28;20539;-38
2022/07/20 00:16:25;;;;;;;5.07;3.28;;;;;;;;;;5053109;28;20032;-38
2022/07/20 00:18:51;;;;;;;10.07;3.20;;;;;;;;;;5052757;28;20033;-38
2022/07/20 00:21:17;;;;;;;7.53;3.28;;;;;;;;;;5052564;28;20029;-38
2022/07/20 00:23:43;;;;;;;4.35;3.20;;;;;;;;;;5052622;28;20029;-38
2022/07/20 00:26:09;;;;;;;6.72;3.35;;;;;;;;;;5052885;28;20021;-39
2022/07/20 00:28:35;;;;;;;9.77;3.58;;;;;;;;;;5051477;28;20021;-38
2022/07/20 00:31:02;;;;;;;7.63;3.10;;;;;;;;;;5052730;28;20430;-38
2022/07/20 00:33:28;;;;;;;3.63;2.97;;;;;;;;;;5052606;28;20129;-39
2022/07/20 00:35:54;;;;;;;6.00;3.90;;;;;;;;;;5052520;28;20057;-39
2022/07/20 00:38:20;;;;;;;5.45;3.03;;;;;;;;;;5051378;28;20481;-39
2022/07/20 00:40:46;;;;;;;3.67;2.95;;;;;;;;;;5052370;28;20031;-39
2022/07/20 00:43:12;;;;;;;6.20;3.50;;;;;;;;;;5052700;28;20029;-39
2022/07/20 00:45:38;;;;;;;3.20;2.90;;;;;;;;;;5053076;28;20021;-38
2022/07/20 00:48:04;;;;;;;5.32;3.30;;;;;;;;;;5054196;28;20029;-38
2022/07/20 00:50:30;;;;;;;3.55;3.22;;;;;;;;;;5056647;28;20037;-39
2022/07/20 00:52:56;;;;;;;5.65;3.35;;;;;;;;;;5056041;28;20096;-38
2022/07/20 00:55:22;;;;;;;9.45;3.47;;;;;;;;;;5056156;28;20025;-39
2022/07/20 00:57:49;;;;;;;5.25;3.38;;;;;;;;;;5056445;28;20017;-38
2022/07/20 01:00:15;;;;;;;5.70;3.40;;;;;;;;;;5037904;28;20461;-39
2022/07/20 01:02:41;;;;;;;6.53;3.47;;;;;;;;;;5056205;28;20489;-38
2022/07/20 01:05:14;;;;;;;6.05;4.22;;;;;;;;;;5054532;28;20025;-38
2022/07/20 01:07:44;;;;;;;6.47;4.13;;;;;;;;;;5056079;28;20022;-38
2022/07/20 01:10:10;;;;;;;;;;;;;;;;;;5056996;28;20020;-38
2022/07/20 01:12:37;;;;;;;4.30;3.30;;;;;;;;;;5056330;28;19911;-38
2022/07/20 01:15:04;;;;;;;7.20;4.10;;;;;;;;;;5056494;28;20346;-37
2022/07/20 01:17:30;;;;;;;7.88;3.38;;;;;;;;;;5056420;28;20044;-37
2022/07/20 01:19:56;;;;;;;5.50;4.30;;;;;;;;;;5055462;28;20127;-39
2022/07/20 01:22:22;;;;;;;8.48;4.97;;;;;;;;;;5056263;28;20048;-38
2022/07/20 01:24:48;;;;;;;8.73;4.15;;;;;;;;;;5055987;28;20075;-38
2022/07/20 01:27:14;;;;;;;4.47;3.53;;;;;;;;;;5056049;28;20029;-37
2022/07/20 01:29:40;;;;;;;7.53;4.15;;;;;;;;;;5055405;28;20025;-38
2022/07/20 01:32:06;;;;;;;8.25;4.30;;;;;;;;;;5055773;28;20036;-38
2022/07/20 01:34:32;;;;;;;6.20;3.83;;;;;;;;;;5055298;28;20035;-38
2022/07/20 01:36:58;;;;;;;8.60;3.72;;;;;;;;;;5055680;28;20587;-40
2022/07/20 01:39:24;;;;;;;9.25;4.20;;;;;;;;;;5054065;28;20039;-39
2022/07/20 01:41:53;;;;;;;4.45;3.58;;;;;;;;;;5055273;28;20100;-39
2022/07/20 01:44:22;;;;;;;7.18;3.80;;;;;;;;;;5055739;28;20072;-38
2022/07/20 01:46:49;;;;;;;8.65;3.78;;;;;;;;;;5055507;28;20447;-39
2022/07/20 01:49:16;;;;;;;13.50;5.50;;;;;;;;;;5055482;28;20029;-39
2022/07/20 01:51:42;;;;;;;5.47;3.53;;;;;;;;;;5055142;28;20430;-38
2022/07/20 01:54:09;;;;;;;6.53;3.67;;;;;;;;;;5055070;28;20036;-38
2022/07/20 01:56:34;;;;;;;5.35;3.20;;;;;;;;;;5055528;28;20119;-38
2022/07/20 01:59:01;;;;;;;7.70;3.22;;;;;;;;;;5054948;28;20061;-38
2022/07/20 02:01:26;;;;;;;5.63;3.97;;;;;;;;;;5054591;28;20512;-38
2022/07/20 02:03:53;;;;;;;6.05;4.70;;;;;;;;;;5054945;28;20021;-38
2022/07/20 02:06:19;;;;;;;7.63;3.70;;;;;;;;;;5054836;28;20027;-38
2022/07/20 02:08:45;;;;;;;8.60;3.55;;;;;;;;;;5054796;28;20036;-38
2022/07/20 02:11:11;;;;;;;4.80;3.35;;;;;;;;;;5055132;28;20028;-38
2022/07/20 02:13:37;;;;;;;4.47;3.05;;;;;;;;;;5054962;28;20021;-38
2022/07/20 02:16:16;;;;;;;12.43;3.45;;;;;;;;;;5054624;28;20384;-38
2022/07/20 02:18:43;;;;;;;5.35;4.32;;;;;;;;;;5053852;28;20026;-38
2022/07/20 02:21:09;;;;;;;12.80;3.55;;;;;;;;;;5055132;28;20060;-38
2022/07/20 02:23:35;;;;;;;8.43;4.05;;;;;;;;;;5054483;28;20021;-38
2022/07/20 02:26:01;;;;;;;6.60;3.42;;;;;;;;;;5054723;28;20469;-39
2022/07/20 02:28:27;;;;;;;8.30;3.85;;;;;;;;;;5054500;28;20067;-40
2022/07/20 02:30:53;;;;;;;11.23;3.83;;;;;;;;;;5053114;28;20508;-38
2022/07/20 02:33:19;;;;;;;4.95;3.42;;;;;;;;;;5054362;28;20053;-38
2022/07/20 02:35:45;;;;;;;11.43;3.95;;;;;;;;;;5054293;28;20036;-38
2022/07/20 02:38:11;;;;;;;7.97;3.40;;;;;;;;;;5053011;28;20043;-39
2022/07/20 02:40:37;;;;;;;6.80;3.90;;;;;;;;;;5054233;28;20423;-39
2022/07/20 02:43:05;;;;;;;6.18;3.63;;;;;;;;;;5054037;28;20029;-38
2022/07/20 02:45:31;;;;;;;4.85;3.40;;;;;;;;;;5054109;28;20051;-38
2022/07/20 02:48:02;;;;;;;6.80;3.70;;;;;;;;;;5054245;28;20029;-38
2022/07/20 02:50:29;;;;;;;7.72;3.72;;;;;;;;;;5053904;28;20021;-39
2022/07/20 02:52:55;;;;;;;11.88;3.47;;;;;;;;;;5053877;28;20017;-39
2022/07/20 02:55:21;;;;;;;4.47;3.70;;;;;;;;;;5054361;28;20032;-39
2022/07/20 02:57:47;;;;;;;4.45;3.20;;;;;;;;;;5054290;28;20029;-39
2022/07/20 03:00:13;;;;;;;8.82;3.72;;;;;;;;;;5054040;28;20031;-39
2022/07/20 03:02:40;;;;;;;5.78;3.50;;;;;;;;;;5053928;28;20380;-38
2022/07/20 03:05:06;;;;;;;8.07;3.22;;;;;;;;;;5053972;28;20381;-39
2022/07/20 03:07:32;;;;;;;3.92;3.53;;;;;;;;;;5053654;28;20059;-38
2022/07/20 03:09:58;;;;;;;7.22;3.92;;;;;;;;;;5053422;28;20477;-39
2022/07/20 03:12:24;;;;;;;4.22;3.22;;;;;;;;;;5053427;28;20025;-39
2022/07/20 03:14:50;;;;;;;9.77;3.72;;;;;;;;;;5052156;28;20070;-38
2022/07/20 03:17:16;;;;;;;9.18;3.58;;;;;;;;;;5052173;28;20029;-38
2022/07/20 19:57:13;;;;;;;17.23;8.60;;;;;;;;;;5071198;28;20412;-47
2022/07/20 19:59:39;;;;;;;12.07;8.05;;;;;;;;;;5070336;28;20135;-48
2022/07/20 20:02:07;;;;;;;9.82;7.43;;;;;;;;;;5070886;28;20017;-47
2022/07/20 20:04:33;;;;;;;11.10;8.10;;;;;;;;;;5070814;28;20100;-47
2022/07/20 20:06:59;;;;;;;12.07;8.57;;;;;;;;;;5070301;28;20033;-47
2022/07/20 20:09:26;;;;;;;13.25;8.63;;;;;;;;;;5070408;28;20024;-46
2022/07/20 20:11:52;;;;;;;10.43;8.82;;;;;;;;;;5070619;28;20077;-48
2022/07/20 20:14:18;;;;;;;12.18;7.70;;;;;;;;;;5071309;28;20111;-38
2022/07/20 20:16:44;;;;;;;10.18;7.55;;;;;;;;;;5070372;28;20060;-48
2022/07/20 20:19:10;;;;;;;14.95;9.63;;;;;;;;;;5070121;28;20017;-39
2022/07/20 20:21:37;;;;;;;13.13;7.55;;;;;;;;;;5069876;28;20214;-46
2022/07/20 20:24:03;;;;;;;11.45;7.25;;;;;;;;;;5069747;28;20060;-47
2022/07/20 20:26:29;;;;;;;15.40;9.32;;;;;;;;;;5069856;28;20033;-47
2022/07/20 20:28:55;;;;;;;10.65;7.28;;;;;;;;;;5070219;28;20100;-46
2022/07/20 20:31:21;;;;;;;11.57;8.32;;;;;;;;;;5070048;28;20114;-50
2022/07/20 20:33:47;;;;;;;14.25;8.10;;;;;;;;;;5069913;28;20112;-49
2022/07/20 20:36:13;;;;;;;14.07;8.98;;;;;;;;;;5070818;28;20453;-47
2022/07/20 20:38:40;;;;;;;12.48;9.18;;;;;;;;;;5069913;28;20036;-48
2022/07/20 20:41:06;;;;;;;15.80;8.45;;;;;;;;;;5068121;28;20028;-47
2022/07/20 20:43:32;;;;;;;15.25;8.85;;;;;;;;;;5069937;28;20024;-48
2022/07/20 20:45:58;;;;;;;15.57;8.27;;;;;;;;;;5069364;28;20112;-48
2022/07/20 20:48:24;;;;;;;11.10;8.25;;;;;;;;;;5068203;28;20059;-49
2022/07/20 20:50:50;;;;;;;11.45;8.65;;;;;;;;;;5069241;28;20028;-46
2022/07/20 20:53:16;;;;;;;18.50;8.50;;;;;;;;;;5069394;28;20491;-49
2022/07/20 20:55:42;;;;;;;12.52;8.70;;;;;;;;;;5069052;28;20045;-47
2022/07/20 20:58:08;;;;;;;13.70;9.38;;;;;;;;;;5069165;28;20020;-47
2022/07/20 21:00:34;;;;;;;15.63;8.25;;;;;;;;;;5069124;28;20031;-47
2022/07/20 21:03:00;;;;;;;10.00;8.10;;;;;;;;;;5069153;28;20040;-49
2022/07/20 21:05:26;;;;;;;15.32;8.52;;;;;;;;;;5069031;28;20021;-47
2022/07/20 21:07:52;;;;;;;12.43;8.68;;;;;;;;;;5059417;28;20032;-48
2022/07/20 21:10:18;;;;;;;11.32;10.20;;;;;;;;;;5055725;28;20075;-48
2022/07/20 21:12:48;;;;;;;11.77;8.88;;;;;;;;;;5056239;28;20032;-47
2022/07/20 21:15:14;;;;;;;13.13;9.13;;;;;;;;;;5056048;28;20025;-51
2022/07/20 21:17:40;;;;;;;14.80;9.32;;;;;;;;;;5055891;28;20083;-48
2022/07/20 21:20:06;;;;;;;13.00;10.75;;;;;;;;;;5055532;28;20025;-47
2022/07/20 21:22:33;;;;;;;14.48;9.00;;;;;;;;;;5055422;28;20025;-49
2022/07/20 21:24:58;;;;;;;12.40;9.52;;;;;;;;;;5055554;28;20021;-48
2022/07/20 21:27:24;;;;;;;15.63;10.57;;;;;;;;;;5055682;28;20062;-49
2022/07/20 21:29:50;;;;;;;16.00;10.38;;;;;;;;;;5055486;28;20036;-49
2022/07/20 21:32:17;;;;;;;14.82;10.65;;;;;;;;;;5055522;28;20021;-49
2022/07/20 21:34:43;;;;;;;16.70;9.77;;;;;;;;;;5055246;28;20041;-49
2022/07/20 21:37:09;;;;;;;12.75;10.40;;;;;;;;;;5055245;28;20035;-48
2022/07/20 21:39:35;;;;;;;15.20;10.07;;;;;;;;;;5055232;28;20025;-47
2022/07/20 21:42:01;;;;;;;13.50;10.32;;;;;;;;;;5055182;28;20032;-48
2022/07/20 21:44:28;;;;;;;16.15;11.02;;;;;;;;;;5055370;28;20029;-48
2022/07/20 21:46:54;;;;;;;15.23;10.45;;;;;;;;;;5055137;28;20505;-47
2022/07/20 21:49:20;;;;;;;18.92;10.65;;;;;;;;;;5054314;28;20025;-49
2022/07/20 21:51:46;;;;;;;15.07;9.00;;;;;;;;;;5053868;28;20025;-47
2022/07/20 21:54:12;;;;;;;16.02;10.63;;;;;;;;;;5053656;28;20032;-47
2022/07/20 21:56:38;;;;;;;13.73;10.02;;;;;;;;;;5055012;28;20103;-47
2022/07/20 21:59:04;;;;;;;13.07;9.98;;;;;;;;;;5054996;28;20021;-47
2022/07/20 22:01:31;;;;;;;14.30;11.35;;;;;;;;;;5054855;28;20028;-47
2022/07/20 22:03:57;;;;;;;19.45;12.00;;;;;;;;;;5056013;28;20017;-46
2022/07/20 22:06:23;;;;;;;17.70;10.27;;;;;;;;;;5054859;28;20028;-48
2022/07/20 22:08:51;;;;;;;17.35;11.38;;;;;;;;;;5054862;28;20481;-47
2022/07/20 22:11:17;;;;;;;17.70;11.90;;;;;;;;;;5055078;28;20488;-47
2022/07/20 22:13:43;;;;;;;16.85;12.85;;;;;;;;;;5054812;28;20029;-48
2022/07/20 22:16:09;;;;;;;20.02;11.88;;;;;;;;;;5054804;28;20434;-47
2022/07/20 22:18:35;;;;;;;20.75;14.77;;;;;;;;;;5053138;28;20035;-46
2022/07/20 22:21:02;;;;;;;23.83;14.18;;;;;;;;;;5054602;28;20029;-46
2022/07/20 22:23:28;;;;;;;25.55;16.25;;;;;;;;;;5054205;28;20061;-47
2022/07/20 22:25:54;;;;;;;20.77;13.57;;;;;;;;;;5053004;28;20029;-47
2022/07/20 22:28:20;;;;;;;19.85;13.43;;;;;;;;;;5054512;28;20085;-46
2022/07/20 22:30:46;;;;;;;17.42;12.48;;;;;;;;;;5054280;28;20085;-47
2022/07/20 22:33:12;;;;;;;13.50;10.55;;;;;;;;;;5054438;28;20481;-48
2022/07/20 22:35:40;;;;;;;13.02;10.77;;;;;;;;;;5054224;28;20069;-46
2022/07/20 22:38:07;;;;;;;14.10;9.32;;;;;;;;;;5054285;28;20029;-46
2022/07/20 22:40:33;;;;;;;11.30;9.63;;;;;;;;;;5053779;28;20028;-48
2022/07/20 22:42:59;;;;;;;11.00;8.55;;;;;;;;;;5052726;28;20037;-48
2022/07/20 22:45:25;;;;;;;14.15;9.82;;;;;;;;;;5054039;28;20440;-47
2022/07/20 22:47:52;;;;;;;9.70;8.35;;;;;;;;;;5053997;28;20020;-46
2022/07/20 22:50:18;;;;;;;15.15;8.98;;;;;;;;;;5054029;28;20032;-48
2022/07/20 22:52:44;;;;;;;12.93;10.00;;;;;;;;;;5053864;28;20417;-47
2022/07/20 22:55:10;;;;;;;14.85;11.02;;;;;;;;;;5053679;28;20041;-47
2022/07/20 22:57:46;;;;;;;13.85;10.25;;;;;;;;;;5053946;28;20115;-46
2022/07/20 23:00:14;;;;;;;15.32;11.25;;;;;;;;;;5053843;28;20020;-46
2022/07/20 23:02:41;;;;;;;13.50;9.30;;;;;;;;;;5053411;28;20021;-48
2022/07/20 23:05:07;;;;;;;13.23;9.68;;;;;;;;;;5053905;28;20104;-48
2022/07/20 23:07:34;;;;;;;14.05;9.95;;;;;;;;;;5053993;28;20017;-45
2022/07/20 23:10:07;;;;;;;14.85;9.73;;;;;;;;;;5053581;28;20461;-49
2022/07/20 23:12:33;;;;;;;10.98;8.73;;;;;;;;;;5053384;28;20036;-47
2022/07/20 23:14:59;;;;;;;14.65;8.27;;;;;;;;;;5053340;28;20040;-49
2022/07/20 23:17:25;;;;;;;15.18;9.88;;;;;;;;;;5053616;28;20395;-48
2022/07/20 23:19:51;;;;;;;14.18;8.05;;;;;;;;;;5053595;28;20025;-47
2022/07/20 23:22:17;;;;;;;11.05;8.23;;;;;;;;;;5053563;28;20028;-47
2022/07/20 23:24:43;;;;;;;10.85;7.78;;;;;;;;;;5053265;28;20036;-47
2022/07/20 23:27:09;;;;;;;9.48;7.93;;;;;;;;;;5053065;28;20112;-49
2022/07/20 23:29:35;;;;;;;14.02;8.45;;;;;;;;;;5052425;28;20036;-47
2022/07/20 23:32:01;;;;;;;14.02;7.97;;;;;;;;;;5051855;28;20039;-48
2022/07/20 23:34:27;;;;;;;13.65;9.20;;;;;;;;;;5053340;28;20025;-48
2022/07/20 23:36:53;;;;;;;12.60;8.70;;;;;;;;;;5053201;28;20025;-47
2022/07/20 23:39:19;;;;;;;11.57;9.25;;;;;;;;;;5053023;28;20021;-38
2022/07/20 23:41:45;;;;;;;13.90;8.85;;;;;;;;;;5053356;28;20423;-39
2022/07/20 23:44:11;;;;;;;16.75;9.43;;;;;;;;;;5035037;28;20025;-41
2022/07/20 23:46:37;;;;;;;14.10;8.88;;;;;;;;;;5053199;28;20025;-38
2022/07/20 23:49:04;;;;;;;14.10;9.63;;;;;;;;;;5053145;28;20040;-39
2022/07/20 23:51:30;;;;;;;11.85;9.63;;;;;;;;;;5053352;28;20027;-39
2022/07/20 23:53:56;;;;;;;9.77;8.45;;;;;;;;;;5051996;28;20380;-47
2022/07/20 23:56:22;;;;;;;11.45;8.07;;;;;;;;;;5052760;28;20087;-46
2022/07/20 23:58:48;;;;;;;8.05;6.60;;;;;;;;;;5053158;28;20036;-46
